Time;durP1;ratioP1;P1;durP2;ratioP2;P2;SDS_P1;SDS_P2;PMS_P1;PMS_P2;Temp;Humidity;BMP_temperature;BMP_pressure;BME280_temperature;BME280_humidity;BME280_pressure;Samples;Min_cycle;Max_cycle;Signal;HPM_P1;HPM_P2
2022/05/29 00:02:31;;;;;;;9.43;2.62;;;;;;;8.61;67.76;99905.41;2246042;78;21532;-73
2022/05/29 00:05:35;;;;;;;8.90;2.77;;;;;;;8.57;67.87;99902.77;2247778;78;20973;-72
2022/05/29 00:08:40;;;;;;;12.07;2.35;;;;;;;8.56;67.94;99899.30;2247297;78;21004;-72
2022/05/29 00:11:41;;;;;;;8.38;2.02;;;;;;;8.58;67.96;99897.80;2245760;78;21009;-73
2022/05/29 00:14:44;;;;;;;6.05;2.25;;;;;;;8.56;67.93;99895.33;2248507;78;20923;-73
2022/05/29 00:17:45;;;;;;;7.30;2.45;;;;;;;8.51;67.96;99905.05;2246438;78;21472;-72
2022/05/29 00:20:51;;;;;;;5.45;2.05;;;;;;;8.49;68.02;99895.12;2247607;78;21555;-72
2022/05/29 00:23:53;;;;;;;7.78;2.25;;;;;;;8.45;68.03;99903.05;2244981;78;21492;-72
2022/05/29 00:26:54;;;;;;;13.40;2.95;;;;;;;8.43;68.13;99898.90;2250064;78;20954;-73
2022/05/29 00:29:56;;;;;;;4.80;2.25;;;;;;;8.38;68.15;99895.36;2242534;78;21504;-73
2022/05/29 00:32:57;;;;;;;4.95;2.00;;;;;;;8.35;68.20;99893.04;2249210;78;21025;-73
2022/05/29 00:35:58;;;;;;;5.95;2.20;;;;;;;8.31;68.22;99895.67;2243894;78;20918;-73
2022/05/29 00:39:00;;;;;;;10.32;2.37;;;;;;;8.25;68.33;99890.53;2246846;78;21037;-72
2022/05/29 00:42:07;;;;;;;5.80;2.10;;;;;;;8.20;68.35;99894.13;2215087;77;21006;-73
2022/05/29 00:45:15;;;;;;;7.00;2.27;;;;;;;8.15;68.41;99888.97;2243854;77;21025;-78
2022/05/29 00:48:19;;;;;;;10.00;2.55;;;;;;;8.10;68.45;99897.36;2243647;77;21013;-73
2022/05/29 00:51:23;;;;;;;7.28;2.83;;;;;;;8.07;68.54;99894.53;2241326;77;21045;-73
2022/05/29 00:54:24;;;;;;;8.28;2.60;;;;;;;8.02;68.63;99893.34;2242962;77;20993;-73
2022/05/29 00:57:33;;;;;;;11.85;3.42;;;;;;;7.93;68.67;99895.11;2246269;77;21048;-72
2022/05/29 01:00:35;;;;;;;8.10;2.90;;;;;;;7.87;68.75;99891.77;2247349;77;21517;-72
2022/05/29 01:03:36;;;;;;;7.62;2.77;;;;;;;7.81;68.88;99891.07;2239823;77;20950;-79
2022/05/29 01:06:37;;;;;;;12.60;3.12;;;;;;;7.72;68.88;99891.51;2248468;77;21029;-76
2022/05/29 01:09:42;;;;;;;11.40;3.45;;;;;;;7.63;69.03;99880.55;2247605;77;20919;-72
2022/05/29 01:13:06;;;;;;;12.68;3.42;;;;;;;7.57;69.06;99888.59;2240845;77;20981;-72
2022/05/29 01:16:22;;;;;;;8.53;3.02;;;;;;;7.53;69.18;99885.08;2246718;77;21024;-72
2022/05/29 01:19:57;;;;;;;10.20;3.30;;;;;;;7.50;69.29;99880.93;2242927;77;21469;-72
2022/05/29 01:23:32;;;;;;;11.45;3.30;;;;;;;7.48;69.31;99882.06;2251551;77;20969;-72
2022/05/29 01:27:04;;;;;;;10.98;3.70;;;;;;;7.40;69.35;99881.50;2239616;77;20997;-71
2022/05/29 01:30:19;;;;;;;12.18;3.12;;;;;;;7.34;69.52;99876.83;2242699;77;21001;-71
2022/05/29 01:33:47;;;;;;;7.28;2.98;;;;;;;7.28;69.58;99870.84;2242569;77;21036;-72
2022/05/29 01:37:16;;;;;;;13.38;3.08;;;;;;;7.25;69.75;99865.38;2246131;77;21014;-75
2022/05/29 01:40:51;;;;;;;13.83;3.02;;;;;;;7.22;69.82;99867.49;2247515;77;21018;-73
2022/05/29 01:44:13;;;;;;;11.88;3.22;;;;;;;7.17;69.82;99875.85;2246104;77;21010;-74
2022/05/29 01:47:43;;;;;;;11.70;3.00;;;;;;;7.10;69.87;99872.17;2244844;77;22260;-73
2022/05/29 01:50:59;;;;;;;12.85;2.72;;;;;;;7.01;69.83;99869.95;2249917;77;22136;-73
2022/05/29 01:54:21;;;;;;;10.75;3.12;;;;;;;6.94;70.20;99868.88;2245310;77;21537;-73
2022/05/29 01:57:34;;;;;;;8.78;2.98;;;;;;;6.91;70.27;99869.17;2244212;77;20959;-71
2022/05/29 02:00:36;;;;;;;7.65;3.12;;;;;;;6.88;70.40;99864.20;2239147;77;21437;-72
2022/05/29 02:03:42;;;;;;;9.50;2.72;;;;;;;6.85;70.55;99873.73;2245421;77;21515;-76
2022/05/29 02:10:32;;;;;;;7.20;2.92;;;;;;;6.70;70.64;99877.34;2243497;77;20931;-72
2022/05/29 02:13:46;;;;;;;6.80;2.70;;;;;;;6.62;70.56;99879.91;2243917;77;21051;-74
2022/05/29 02:16:55;;;;;;;8.28;2.83;;;;;;;6.49;70.57;99874.96;2246979;77;21001;-73
2022/05/29 02:20:23;;;;;;;8.40;2.62;;;;;;;6.44;70.85;99874.56;2253703;77;20990;-73
2022/05/29 02:23:37;;;;;;;9.23;3.00;;;;;;;6.38;70.86;99870.70;2209503;77;20966;-73
2022/05/29 02:27:08;;;;;;;4.90;2.50;;;;;;;6.28;71.19;99874.72;2239238;77;20977;-74
2022/05/29 02:30:11;;;;;;;6.03;3.22;;;;;;;6.20;71.28;99869.34;2245584;77;21053;-72
2022/05/29 02:33:23;;;;;;;9.05;2.95;;;;;;;6.08;71.31;99869.16;2245293;77;20989;-73
2022/05/29 02:36:51;;;;;;;10.90;2.70;;;;;;;6.03;71.54;99872.23;2250675;77;21016;-73
2022/05/29 02:40:07;;;;;;;6.85;2.92;;;;;;;5.96;71.70;99879.03;2251771;77;21270;-72
2022/05/29 02:43:26;;;;;;;18.10;3.10;;;;;;;5.91;71.85;99877.77;2241951;77;20955;-72
2022/05/29 02:46:53;;;;;;;8.50;2.98;;;;;;;5.85;71.92;99882.62;2248186;77;21056;-72
2022/05/29 02:50:08;;;;;;;7.62;2.95;;;;;;;5.79;72.14;99881.88;2253549;77;20927;-71
2022/05/29 02:53:13;;;;;;;11.50;2.95;;;;;;;5.75;72.34;99882.33;2246637;77;20989;-72
2022/05/29 02:56:16;;;;;;;10.40;2.95;;;;;;;5.72;72.23;99879.48;2251694;77;20950;-72
2022/05/29 02:59:17;;;;;;;10.45;4.25;;;;;;;5.74;72.59;99884.11;2248321;77;20955;-72
2022/05/29 03:02:47;;;;;;;9.25;3.17;;;;;;;5.81;72.74;99881.76;2245658;77;21113;-73
2022/05/29 03:06:37;;;;;;;8.55;3.08;;;;;;;5.86;72.78;99879.53;2244296;77;21009;-74
2022/05/29 03:10:13;;;;;;;9.08;3.30;;;;;;;5.92;72.74;99882.09;2240823;77;21024;-75
2022/05/29 03:13:21;;;;;;;8.90;3.55;;;;;;;6.01;72.70;99887.34;2245255;77;21034;-73
2022/05/29 03:17:02;;;;;;;7.80;2.75;;;;;;;6.14;72.93;99884.41;2250075;77;21005;-72
2022/05/29 03:20:26;;;;;;;6.05;2.95;;;;;;;6.23;72.80;99887.98;2243219;77;22247;-71
2022/05/29 03:23:59;;;;;;;7.35;3.10;;;;;;;6.37;72.88;99882.73;2221054;77;21017;-72
2022/05/29 03:27:12;;;;;;;8.00;2.92;;;;;;;6.65;72.96;99887.52;2245708;77;20946;-71
2022/05/29 03:30:32;;;;;;;11.48;3.47;;;;;;;6.95;72.70;99891.63;2246053;77;20942;-72
2022/05/29 03:33:33;;;;;;;7.92;2.75;;;;;;;7.31;72.63;99881.92;2213604;77;20990;-72
2022/05/29 03:36:35;;;;;;;4.47;2.62;;;;;;;7.64;72.25;99886.98;2257793;77;21025;-73
2022/05/29 03:39:36;;;;;;;7.45;3.05;;;;;;;7.98;72.15;99888.05;2236340;77;20989;-72
2022/05/29 03:42:37;;;;;;;7.87;3.00;;;;;;;8.33;71.88;99877.82;2241160;78;21074;-75
2022/05/29 03:45:39;;;;;;;7.15;2.67;;;;;;;8.70;71.48;99878.00;2240504;78;21496;-72
2022/05/29 03:48:42;;;;;;;4.92;2.17;;;;;;;9.04;71.13;99877.95;2236625;78;21001;-72
2022/05/29 03:51:44;;;;;;;7.65;2.05;;;;;;;9.37;70.57;99876.64;2240269;78;21006;-72
2022/05/29 03:54:45;;;;;;;5.58;2.22;;;;;;;9.65;70.38;99878.47;2236791;77;21496;-73
2022/05/29 03:57:48;;;;;;;4.30;2.30;;;;;;;10.04;70.07;99873.27;2243624;78;21579;-75
2022/05/29 04:00:49;;;;;;;8.28;2.22;;;;;;;10.47;69.55;99875.19;2237557;78;20946;-73
2022/05/29 04:03:54;;;;;;;6.83;2.65;;;;;;;10.88;69.35;99878.95;2246666;78;21042;-73
2022/05/29 04:06:55;;;;;;;4.65;2.65;;;;;;;11.41;68.75;99876.46;2238738;78;21010;-72
2022/05/29 04:13:18;;;;;;;8.53;2.50;;;;;;;12.37;67.52;99883.39;2238178;78;21018;-72
2022/05/29 04:16:19;;;;;;;6.85;2.77;;;;;;;12.81;66.97;99878.02;2246310;77;20982;-72
2022/05/29 04:19:21;;;;;;;8.05;2.70;;;;;;;13.33;66.55;99882.27;2241464;78;22223;-73
2022/05/29 04:22:22;;;;;;;3.95;2.37;;;;;;;13.72;65.65;99878.31;2236731;78;21512;-72
2022/05/29 04:25:24;;;;;;;4.87;2.75;;;;;;;13.98;64.81;99871.53;2235167;78;21461;-72
2022/05/29 04:28:25;;;;;;;6.67;2.65;;;;;;;14.35;64.12;99872.46;2239286;78;20994;-73
2022/05/29 04:31:27;;;;;;;7.65;2.72;;;;;;;14.64;63.83;99869.27;2242189;78;21009;-72
2022/05/29 04:34:28;;;;;;;8.78;2.52;;;;;;;14.98;63.32;99867.02;2242466;78;20981;-71
2022/05/29 04:37:31;;;;;;;7.60;2.67;;;;;;;15.47;62.65;99868.52;2243721;78;20981;-72
2022/05/29 04:40:33;;;;;;;8.25;2.58;;;;;;;15.99;62.21;99864.72;2242559;78;20994;-71
2022/05/29 04:43:35;;;;;;;7.50;2.40;;;;;;;16.41;61.49;99867.10;2244990;78;21886;-70
2022/05/29 04:46:36;;;;;;;6.03;2.22;;;;;;;16.59;60.60;99869.41;2234867;77;21373;-72
2022/05/29 04:49:39;;;;;;;5.33;2.80;;;;;;;16.98;59.94;99872.98;2239380;78;20989;-71
2022/05/29 04:52:40;;;;;;;7.15;2.50;;;;;;;17.34;59.01;99872.03;2231076;77;20993;-72
2022/05/29 04:55:42;;;;;;;5.72;2.35;;;;;;;17.36;58.06;99878.00;2232499;78;20973;-71
2022/05/29 04:58:43;;;;;;;5.75;2.00;;;;;;;17.34;57.07;99877.39;2242235;77;21490;-71
2022/05/29 05:01:45;;;;;;;7.83;2.17;;;;;;;17.42;57.77;99876.61;2245113;78;21434;-71
2022/05/29 05:04:47;;;;;;;5.92;2.37;;;;;;;17.40;56.84;99863.95;2230668;78;20979;-72
2022/05/29 05:07:48;;;;;;;8.85;2.30;;;;;;;17.53;56.30;99866.23;2225635;78;20966;-71
2022/05/29 05:10:50;;;;;;;6.75;2.45;;;;;;;17.52;55.41;99864.59;2231901;78;20947;-71
2022/05/29 05:13:51;;;;;;;5.97;2.20;;;;;;;17.60;55.70;99861.64;2241668;78;20988;-74
2022/05/29 05:16:53;;;;;;;7.05;1.95;;;;;;;17.70;54.93;99868.66;2244721;78;21029;-71
2022/05/29 05:19:54;;;;;;;7.95;2.98;;;;;;;17.77;54.30;99864.59;2243831;78;20926;-69
2022/05/29 05:22:55;;;;;;;10.78;2.65;;;;;;;17.74;53.91;99871.22;2236625;78;21004;-71
2022/05/29 05:25:57;;;;;;;8.28;2.37;;;;;;;17.70;53.55;99868.14;2244080;78;21045;-69
2022/05/29 05:28:58;;;;;;;6.20;2.10;;;;;;;17.50;52.41;99870.69;2235102;78;21440;-72
2022/05/29 05:32:01;;;;;;;4.72;1.85;;;;;;;17.24;52.68;99873.86;2243772;78;21005;-71
2022/05/29 05:35:06;;;;;;;4.95;2.35;;;;;;;17.56;53.58;99875.17;2242071;78;21535;-71
2022/05/29 05:38:07;;;;;;;6.75;2.20;;;;;;;17.52;51.88;99880.16;2239325;78;20954;-72
2022/05/29 05:41:14;;;;;;;6.60;2.22;;;;;;;17.45;51.92;99880.19;2245140;78;21024;-77
2022/05/29 05:44:15;;;;;;;7.72;2.42;;;;;;;17.60;51.30;99876.40;2248853;78;21029;-71
2022/05/29 05:47:24;;;;;;;7.90;2.22;;;;;;;17.59;51.68;99879.58;2240326;78;21008;-71
2022/05/29 05:50:25;;;;;;;7.50;2.70;;;;;;;17.74;51.10;99885.13;2242085;77;20983;-73
2022/05/29 05:53:27;;;;;;;4.17;1.90;;;;;;;17.84;51.47;99882.81;2240731;77;20978;-72
2022/05/29 05:56:29;;;;;;;8.98;2.33;;;;;;;18.11;50.99;99887.44;2245067;78;20995;-74
2022/05/29 05:59:30;;;;;;;5.45;1.82;;;;;;;18.25;50.08;99886.78;2247104;78;21052;-69
2022/05/29 06:02:32;;;;;;;9.18;2.60;;;;;;;18.27;48.82;99888.20;2243070;78;21032;-72
2022/05/29 06:05:33;;;;;;;6.12;2.30;;;;;;;18.19;49.52;99897.05;2241525;78;21017;-74
2022/05/29 06:08:35;;;;;;;7.87;2.60;;;;;;;18.21;49.53;99895.78;2251272;78;20978;-71
2022/05/29 06:11:39;;;;;;;7.10;2.67;;;;;;;18.45;48.91;99898.12;2242333;78;21000;-71
2022/05/29 06:14:42;;;;;;;12.55;2.85;;;;;;;18.66;49.17;99898.18;2243693;78;21028;-72
2022/05/29 06:17:45;;;;;;;7.83;2.52;;;;;;;18.90;48.74;99895.67;2235400;78;21034;-74
2022/05/29 06:20:47;;;;;;;9.45;2.00;;;;;;;19.21;49.00;99898.12;2223929;77;21100;-71
2022/05/29 06:23:49;;;;;;;7.20;2.05;;;;;;;19.76;48.71;99901.14;2223839;78;21418;-71
2022/05/29 06:26:54;;;;;;;10.32;2.77;;;;;;;20.03;47.17;99896.67;2245740;78;21049;-72
2022/05/29 06:29:56;;;;;;;7.62;2.27;;;;;;;20.15;47.48;99896.94;2242682;78;20978;-72
2022/05/29 06:32:57;;;;;;;8.70;2.52;;;;;;;20.28;46.74;99899.94;2245471;78;21481;-72
2022/05/29 06:36:18;;;;;;;7.85;2.40;;;;;;;20.37;46.91;99894.47;2242508;78;21001;-73
2022/05/29 06:39:21;;;;;;;5.67;1.98;;;;;;;20.51;46.30;99888.83;2242203;78;21035;-74
2022/05/29 06:42:22;;;;;;;7.67;2.20;;;;;;;20.49;45.83;99884.20;2240452;77;21061;-71
2022/05/29 06:45:26;;;;;;;5.92;2.15;;;;;;;20.70;45.57;99886.83;2246122;78;21028;-74
2022/05/29 06:48:28;;;;;;;5.97;2.35;;;;;;;20.93;44.85;99883.23;2244145;78;21028;-71
2022/05/29 06:51:30;;;;;;;5.83;1.72;;;;;;;20.88;45.22;99893.38;2243372;78;21010;-74
2022/05/29 06:54:31;;;;;;;5.12;1.75;;;;;;;21.04;44.17;99888.58;2243071;78;20978;-74
2022/05/29 06:57:44;;;;;;;6.78;1.87;;;;;;;20.76;44.28;99896.13;2241080;78;21044;-72
2022/05/29 07:07:33;;;;;;;6.53;2.22;;;;;;;20.56;43.17;99880.89;2239054;78;21548;-73
2022/05/29 07:10:34;;;;;;;7.12;1.77;;;;;;;20.67;42.73;99887.31;2241359;78;21036;-72
2022/05/29 07:13:36;;;;;;;4.97;1.85;;;;;;;20.91;42.76;99890.20;2243014;78;20948;-75
2022/05/29 07:16:38;;;;;;;6.17;1.87;;;;;;;20.95;42.54;99881.94;2248372;78;21535;-74
2022/05/29 07:19:42;;;;;;;5.58;2.20;;;;;;;20.88;42.40;99892.03;2234413;78;20948;-73
2022/05/29 07:22:46;;;;;;;12.68;2.12;;;;;;;20.56;42.04;99885.75;2249668;78;21028;-74
2022/05/29 07:25:49;;;;;;;9.85;2.25;;;;;;;20.40;42.21;99883.75;2236969;78;21012;-74
2022/05/29 07:28:52;;;;;;;10.15;2.83;;;;;;;20.02;41.98;99885.08;2244475;78;21659;-72
2022/05/29 07:31:54;;;;;;;8.25;2.12;;;;;;;20.06;42.09;99879.50;2245327;78;21556;-72
2022/05/29 07:34:56;;;;;;;5.30;1.87;;;;;;;20.20;42.37;99886.01;2248261;78;20954;-75
2022/05/29 07:38:02;;;;;;;4.80;1.90;;;;;;;20.10;42.18;99887.42;2245923;78;21009;-74
2022/05/29 07:43:18;;;;;;;9.13;2.10;;;;;;;20.25;42.11;99880.73;2243979;77;21442;-73
2022/05/29 07:44:06;;;;;;;7.75;2.40;;;;;;;20.48;42.19;99879.34;2249479;77;21512;-73
2022/05/29 07:47:08;;;;;;;8.10;2.45;;;;;;;20.56;41.85;99874.15;2214388;77;20996;-73
2022/05/29 07:50:14;;;;;;;7.03;2.72;;;;;;;20.68;42.22;99880.32;2254702;77;20982;-72
2022/05/29 07:53:15;;;;;;;7.17;2.25;;;;;;;20.88;41.61;99880.44;2253022;77;21005;-74
2022/05/29 07:56:19;;;;;;;17.35;2.90;;;;;;;20.77;41.23;99879.41;2246724;77;20997;-75
2022/05/29 07:59:23;;;;;;;9.15;2.02;;;;;;;20.95;41.26;99873.84;2247775;77;21016;-74
2022/05/29 08:02:24;;;;;;;6.15;2.42;;;;;;;21.10;41.52;99875.19;2254420;76;21677;-73
2022/05/29 08:05:26;;;;;;;7.53;2.10;;;;;;;21.33;40.84;99876.41;2251528;77;21068;-74
2022/05/29 08:08:29;;;;;;;7.42;2.10;;;;;;;21.23;40.53;99871.66;2252484;77;22171;-73
2022/05/29 08:11:31;;;;;;;3.05;1.50;;;;;;;21.29;39.57;99869.88;2251618;77;20962;-73
2022/05/29 08:14:32;;;;;;;7.78;2.58;;;;;;;21.31;39.61;99862.88;2255217;77;20978;-70
2022/05/29 08:17:33;;;;;;;6.30;2.10;;;;;;;20.52;39.36;99868.90;2249473;77;20994;-79
2022/05/29 08:20:36;;;;;;;6.42;1.95;;;;;;;20.68;39.34;99869.53;2249667;77;21059;-69
2022/05/29 08:23:38;;;;;;;4.45;1.80;;;;;;;20.93;39.10;99865.17;2257132;77;20978;-72
2022/05/29 08:33:25;;;;;;;6.37;2.30;;;;;;;21.34;38.54;99864.54;2250069;77;21875;-69
2022/05/29 08:36:27;;;;;;;8.90;2.10;;;;;;;20.27;38.26;99861.09;2249701;77;20966;-66
2022/05/29 08:39:29;;;;;;;6.80;1.90;;;;;;;19.56;38.73;99866.45;2251326;77;21005;-67
2022/05/29 08:42:31;;;;;;;7.03;2.12;;;;;;;19.03;39.08;99863.20;2251951;77;21089;-66
2022/05/29 08:45:36;;;;;;;4.80;1.65;;;;;;;19.03;39.51;99865.39;2250216;77;21457;-69
2022/05/29 08:48:38;;;;;;;7.55;2.37;;;;;;;19.06;38.75;99866.78;2220200;77;21005;-69
2022/05/29 08:52:24;;;;;;;4.97;1.95;;;;;;;18.77;39.39;99862.52;2253735;77;20984;-69
2022/05/29 08:55:47;;;;;;;9.08;2.17;;;;;;;19.40;39.88;99857.20;2250651;77;20977;-69
2022/05/29 08:59:11;;;;;;;6.78;1.90;;;;;;;20.05;38.31;99856.34;2255001;77;21030;-67
2022/05/29 09:02:40;;;;;;;10.20;2.20;;;;;;;20.47;38.58;99854.81;2250107;77;21132;-68
2022/05/29 09:05:51;;;;;;;5.28;2.60;;;;;;;20.11;38.17;99855.39;2249787;77;20995;-70
2022/05/29 09:09:07;;;;;;;4.67;1.40;;;;;;;19.71;38.07;99863.36;2254385;77;20990;-68
2022/05/29 09:12:23;;;;;;;6.20;2.00;;;;;;;19.16;37.82;99860.34;2246032;77;21005;-70
2022/05/29 09:15:39;;;;;;;4.65;1.90;;;;;;;18.96;38.43;99859.80;2248733;77;21005;-70
2022/05/29 09:18:52;;;;;;;10.15;2.40;;;;;;;18.96;38.75;99861.96;2250204;77;20923;-67
2022/05/29 09:22:05;;;;;;;4.83;1.90;;;;;;;18.58;38.88;99864.89;2248760;77;21540;-68
2022/05/29 09:25:12;;;;;;;5.65;2.37;;;;;;;18.41;38.75;99862.52;2246547;77;21042;-67
2022/05/29 09:28:25;;;;;;;6.75;2.00;;;;;;;18.64;39.25;99857.80;2247042;77;21006;-67
2022/05/29 09:31:30;;;;;;;10.78;2.25;;;;;;;18.67;38.74;99851.47;2246288;77;21363;-66
2022/05/29 09:34:35;;;;;;;8.08;2.20;;;;;;;18.88;39.23;99854.22;2248487;77;21044;-68
2022/05/29 09:37:56;;;;;;;6.03;1.98;;;;;;;19.67;39.05;99848.71;2244400;77;21905;-67
2022/05/29 09:41:04;;;;;;;6.28;1.75;;;;;;;19.78;38.24;99845.73;2242719;77;21001;-66
2022/05/29 09:44:14;;;;;;;6.62;2.27;;;;;;;19.33;38.40;99847.58;2243585;77;20958;-68
2022/05/29 09:50:51;;;;;;;5.90;1.70;;;;;;;18.41;37.94;99838.34;2245514;77;20448;-66
2022/05/29 09:53:57;;;;;;;5.83;2.00;;;;;;;17.92;38.95;99836.91;2254552;77;21512;-69
2022/05/29 09:57:27;;;;;;;9.80;2.12;;;;;;;17.80;39.64;99842.19;2245504;77;21396;-68
2022/05/29 10:00:36;;;;;;;3.73;1.50;;;;;;;17.81;39.62;99837.12;2250077;77;21013;-70
2022/05/29 10:03:49;;;;;;;8.60;2.20;;;;;;;17.66;39.66;99835.27;2245788;77;20943;-70
2022/05/29 10:06:57;;;;;;;;;;;;;;;17.85;39.95;99834.80;2252313;77;21446;-71
2022/05/29 10:10:13;;;;;;;7.15;1.57;;;;;;;18.58;39.51;99831.31;2249341;77;20107;-69
2022/05/29 10:13:34;;;;;;;7.58;2.00;;;;;;;19.05;39.61;99827.50;2242830;77;21068;-73
2022/05/29 10:16:39;;;;;;;9.68;2.00;;;;;;;19.05;38.97;99834.23;2243912;78;20969;-69
2022/05/29 10:19:48;;;;;;;5.28;1.90;;;;;;;18.64;38.91;99847.05;2249499;77;20981;-72
2022/05/29 10:22:48;;;;;;;5.70;2.17;;;;;;;18.30;38.92;99852.84;2246475;77;21006;-72
2022/05/29 10:26:01;;;;;;;7.87;1.77;;;;;;;17.99;38.86;99851.60;2248442;77;21075;-71
2022/05/29 10:29:19;;;;;;;4.03;1.60;;;;;;;17.74;38.99;99852.44;2248223;77;20910;-68
2022/05/29 10:32:28;;;;;;;7.62;2.02;;;;;;;17.67;38.77;99840.93;2248399;77;20973;-72
2022/05/29 10:35:33;;;;;;;5.75;1.45;;;;;;;17.60;40.05;99835.63;2243738;77;21108;-73
2022/05/29 10:38:35;;;;;;;5.45;1.57;;;;;;;17.53;39.61;99834.03;2249050;77;21073;-73
2022/05/29 10:41:41;;;;;;;7.67;2.58;;;;;;;17.46;39.92;99842.97;2247829;77;21430;-72
2022/05/29 10:44:46;;;;;;;3.42;1.77;;;;;;;17.44;40.07;99845.03;2257915;77;21020;-70
2022/05/29 10:48:05;;;;;;;5.87;2.02;;;;;;;17.41;39.89;99836.09;2254533;77;20969;-72
2022/05/29 10:51:22;;;;;;;5.15;1.75;;;;;;;17.35;40.25;99832.13;2256387;77;20985;-72
2022/05/29 10:54:55;;;;;;;5.33;1.90;;;;;;;17.42;39.94;99835.03;2252720;77;21555;-72
2022/05/29 10:58:30;;;;;;;3.50;1.22;;;;;;;17.76;40.30;99832.08;2253589;77;21471;-72
2022/05/29 11:05:57;;;;;;;6.85;2.10;;;;;;;18.44;39.67;99819.09;2257967;77;20994;-71
2022/05/29 11:09:37;;;;;;;6.08;1.92;;;;;;;18.33;39.70;99828.22;2258390;77;20946;-72
2022/05/29 11:13:25;;;;;;;3.65;1.85;;;;;;;18.27;39.53;99825.59;2258663;77;21020;-72
2022/05/29 11:16:47;;;;;;;6.10;1.75;;;;;;;18.16;39.59;99809.73;2254818;77;21005;-72
2022/05/29 11:20:13;;;;;;;4.60;1.70;;;;;;;18.15;39.20;99812.09;2257994;77;21061;-77
2022/05/29 11:23:30;;;;;;;5.67;1.82;;;;;;;18.23;39.91;99811.80;2257424;77;21622;-73
2022/05/29 11:27:02;;;;;;;5.47;1.72;;;;;;;18.31;39.52;99803.97;2258065;77;21008;-81
2022/05/29 11:30:28;;;;;;;6.10;1.60;;;;;;;18.46;39.64;99806.27;2256703;77;20926;-73
2022/05/29 11:33:47;;;;;;;4.90;1.75;;;;;;;18.49;38.77;99810.66;2251217;77;20966;-72
2022/05/29 11:37:10;;;;;;;3.30;1.65;;;;;;;18.56;39.27;99797.16;2255410;77;20991;-74
2022/05/29 11:40:25;;;;;;;4.50;1.70;;;;;;;18.67;39.29;99797.73;2248444;77;21024;-74
2022/05/29 11:43:47;;;;;;;6.35;1.50;;;;;;;18.67;38.77;99786.13;2242524;77;21437;-74
2022/05/29 11:53:54;;;;;;;4.20;1.25;;;;;;;18.52;38.65;99775.27;2230993;77;20986;-72
2022/05/29 11:57:17;;;;;;;3.00;1.47;;;;;;;18.46;38.70;99772.69;2239373;77;21025;-80
2022/05/29 12:00:42;;;;;;;3.60;1.25;;;;;;;18.58;38.73;99762.80;2237366;77;21275;-72
2022/05/29 12:03:55;;;;;;;6.28;1.57;;;;;;;18.97;39.39;99761.97;2221034;77;21061;-72
2022/05/29 12:07:13;;;;;;;5.12;1.75;;;;;;;19.05;38.21;99765.66;2239935;77;21075;-75
2022/05/29 12:10:20;;;;;;;4.03;1.32;;;;;;;18.94;38.11;99767.80;2244153;77;21025;-72
2022/05/29 12:13:26;;;;;;;5.50;1.57;;;;;;;19.03;37.80;99752.47;2248581;77;21037;-71
2022/05/29 12:16:31;;;;;;;6.45;1.40;;;;;;;19.14;37.99;99748.67;2246125;77;21012;-71
2022/05/29 12:19:41;;;;;;;4.62;1.60;;;;;;;19.34;38.56;99752.37;2242418;77;21032;-76
2022/05/29 12:22:51;;;;;;;3.33;1.22;;;;;;;19.52;38.33;99748.77;2243387;77;21068;-71
2022/05/29 12:26:08;;;;;;;5.65;1.75;;;;;;;19.53;37.85;99754.43;2242278;77;22304;-72
2022/05/29 12:29:36;;;;;;;9.93;2.37;;;;;;;19.59;37.81;99749.45;2251903;77;20947;-73
2022/05/29 12:32:37;;;;;;;2.72;1.47;;;;;;;19.36;37.16;99746.23;2240767;77;21062;-73
2022/05/29 12:35:44;;;;;;;5.65;1.82;;;;;;;19.05;37.74;99754.91;2245884;77;21098;-73
2022/05/29 12:39:08;;;;;;;4.22;1.47;;;;;;;19.12;37.79;99755.64;2182757;77;21437;-72
2022/05/29 12:42:49;;;;;;;5.37;2.08;;;;;;;19.21;37.21;99765.53;2247796;77;21657;-75
2022/05/29 12:46:30;;;;;;;4.17;1.45;;;;;;;19.04;37.18;99768.07;2240349;78;21087;-72
2022/05/29 12:50:00;;;;;;;4.58;1.32;;;;;;;18.87;37.31;99763.06;2233872;78;21436;-71
2022/05/29 12:53:27;;;;;;;2.90;1.40;;;;;;;18.64;37.40;99759.72;2246875;78;20935;-71
2022/05/29 12:57:20;;;;;;;5.15;1.50;;;;;;;18.44;37.31;99766.71;2242775;77;21008;-68
2022/05/29 13:01:03;;;;;;;7.08;1.80;;;;;;;18.20;37.45;99759.08;2237986;78;20969;-73
2022/05/29 13:04:22;;;;;;;3.02;1.85;;;;;;;18.16;38.00;99750.66;2235772;78;20962;-73
2022/05/29 13:07:30;;;;;;;4.03;1.35;;;;;;;18.14;37.26;99746.84;2207755;78;20947;-72
2022/05/29 13:10:38;;;;;;;1.98;1.10;;;;;;;18.14;37.50;99747.38;2242414;78;21067;-72
2022/05/29 13:13:43;;;;;;;5.83;2.02;;;;;;;18.04;38.22;99752.44;2239205;78;20995;-72
2022/05/29 13:16:46;;;;;;;3.92;1.30;;;;;;;18.09;38.21;99749.91;2240100;78;20958;-73
2022/05/29 13:20:16;;;;;;;6.03;1.60;;;;;;;18.25;38.22;99751.98;2238909;78;21137;-72
2022/05/29 13:23:41;;;;;;;6.17;1.67;;;;;;;18.35;37.85;99736.13;2245036;78;21019;-72
2022/05/29 13:26:43;;;;;;;3.42;1.57;;;;;;;18.55;37.86;99738.55;2240334;78;21058;-74
2022/05/29 13:29:55;;;;;;;4.33;1.50;;;;;;;18.71;37.65;99720.97;2237848;78;21014;-78
2022/05/29 13:33:31;;;;;;;4.25;1.55;;;;;;;18.80;37.47;99720.95;2247407;77;21370;-71
2022/05/29 13:36:44;;;;;;;3.75;1.70;;;;;;;18.88;36.83;99731.09;2245865;78;21080;-72
2022/05/29 13:39:58;;;;;;;4.50;1.60;;;;;;;18.82;37.17;99735.52;2236534;78;20950;-77
2022/05/29 13:43:25;;;;;;;2.98;1.60;;;;;;;18.86;37.17;99730.50;2239682;77;20963;-71
2022/05/29 13:46:28;;;;;;;4.87;1.60;;;;;;;18.68;36.80;99721.43;2240206;78;21060;-74
2022/05/29 13:49:30;;;;;;;4.60;1.67;;;;;;;18.12;37.50;99730.66;2240519;78;21419;-69
2022/05/29 13:52:53;;;;;;;8.05;1.80;;;;;;;18.05;37.61;99722.70;2241350;78;21052;-69
2022/05/29 13:56:06;;;;;;;3.42;1.45;;;;;;;18.07;37.97;99722.45;2238528;78;21009;-72
2022/05/29 14:06:22;;;;;;;6.22;1.40;;;;;;;17.84;36.69;99723.14;2247487;78;21014;-80
2022/05/29 14:09:35;;;;;;;6.75;1.70;;;;;;;17.74;37.38;99731.70;2242549;78;20951;-70
2022/05/29 14:13:12;;;;;;;3.55;1.45;;;;;;;17.70;37.49;99737.19;2242900;78;21045;-69
2022/05/29 14:16:36;;;;;;;5.20;1.75;;;;;;;17.62;37.48;99741.50;2227285;78;21060;-77
2022/05/29 14:20:09;;;;;;;5.53;2.22;;;;;;;17.58;37.86;99730.93;2240474;78;21496;-78
2022/05/29 14:23:51;;;;;;;3.35;1.75;;;;;;;17.62;38.03;99714.15;2245442;78;20990;-84
2022/05/29 14:27:05;;;;;;;5.33;1.70;;;;;;;17.56;37.49;99708.34;2239042;77;21549;-70
2022/05/29 14:30:20;;;;;;;3.85;1.80;;;;;;;17.73;37.90;99701.86;2238629;78;21073;-70
2022/05/29 14:33:33;;;;;;;4.25;1.70;;;;;;;17.96;38.08;99713.81;2238505;77;21067;-70
2022/05/29 14:37:00;;;;;;;6.20;1.50;;;;;;;18.11;38.25;99712.92;2242956;78;20951;-72
2022/05/29 14:40:33;;;;;;;2.75;1.32;;;;;;;18.08;37.59;99721.43;2212989;78;20998;-70
2022/05/29 14:43:41;;;;;;;2.92;1.37;;;;;;;17.95;37.76;99725.08;2245678;78;21036;-70
2022/05/29 14:50:30;;;;;;;2.90;1.60;;;;;;;17.90;38.05;99713.66;2253553;77;21432;-70
2022/05/29 14:53:55;;;;;;;7.33;2.00;;;;;;;17.95;38.48;99712.19;2252373;77;21509;-70
2022/05/29 14:57:03;;;;;;;3.30;1.50;;;;;;;17.99;37.87;99710.68;2249025;77;21464;-68
2022/05/29 15:00:10;;;;;;;3.47;1.55;;;;;;;17.87;38.10;99722.16;2250421;77;20945;-73
2022/05/29 15:03:27;;;;;;;4.42;1.40;;;;;;;17.94;38.04;99727.48;2242689;77;20997;-72
2022/05/29 15:10:31;;;;;;;4.03;1.45;;;;;;;18.08;37.78;99720.09;2249690;77;20959;-69
2022/05/29 15:14:02;;;;;;;3.17;1.60;;;;;;;18.08;38.25;99720.09;2252792;77;20997;-69
2022/05/29 15:17:03;;;;;;;5.12;1.72;;;;;;;18.06;38.58;99716.80;2254586;77;21064;-71
2022/05/29 15:26:59;;;;;;;5.25;1.40;;;;;;;17.92;38.74;99705.41;2251799;77;20977;-69
2022/05/29 15:30:07;;;;;;;2.92;1.50;;;;;;;17.91;39.16;99708.61;2255766;77;21017;-68
2022/05/29 15:33:11;;;;;;;12.68;2.12;;;;;;;17.91;38.97;99708.61;2248474;77;21674;-69
2022/05/29 15:36:21;;;;;;;4.22;1.47;;;;;;;17.79;39.16;99699.66;2244932;77;20944;-69
2022/05/29 15:39:43;;;;;;;6.97;1.45;;;;;;;17.67;39.17;99702.77;2251297;77;20993;-68
2022/05/29 15:43:08;;;;;;;7.97;2.02;;;;;;;17.65;39.49;99703.50;2249428;77;20977;-73
2022/05/29 15:46:18;;;;;;;6.37;1.60;;;;;;;17.66;39.63;99703.81;2256683;77;20966;-71
2022/05/29 15:49:59;;;;;;;3.75;2.05;;;;;;;17.59;40.11;99702.53;2246992;77;20995;-69
2022/05/29 15:53:24;;;;;;;3.45;1.77;;;;;;;17.59;39.84;99704.39;2251111;77;21434;-70
2022/05/29 15:57:01;;;;;;;4.80;1.67;;;;;;;17.56;40.25;99706.19;2253590;77;21076;-71
2022/05/29 16:00:10;;;;;;;3.95;1.80;;;;;;;17.47;40.56;99699.77;2222797;77;21016;-70